Terminal Aerodrome Forecast
Issued by NWS

Home | Current Version | Previous Version | Text Only | Print | Product List | Glossary On
Versions: 1 2 3 4 5 6 7 8 9 10 11 12 13
000
FTUS45 KREV 201800 AAA
TAFMMH
TAF AMD
KMMH 201808Z 2018/2118 11012G20KT P6SM SCT090 SCT140
     FM202200 10011G19KT P6SM SCT080 BKN140
     FM210300 VRB03KT P6SM VCSH SCT040 BKN070=

USA.gov is the U.S. government's official web portal to all federal, state and local government web resources and services.